ΕΜΥ, Εθνική Μετεωρολογική Υπηρεσία - Δελτία Καιρού, Προγνώσεις

ΑΕΡΟΝΑΥΤΙΛΙΑ

GREEK AIRPORTS CODES

TAF LGSA 091100Z 0912/1012 09008KT 9999 FEW020 SCT050 BECMG 0916/0918 18015KT SCT020 BKN050 PROB40 TEMPO 0918/1012 5000 RA PROB40 TEMPO 0921/1012 4000 TSRA SCT016 FEW018CB BKN020 TEMPO 1006/1012 18015G25KT=

EUROPEAN AIRPORTS CODES